Flight Track Log - Related Links

Times and Time Zones

All times are in EDT time to prevent confusion due to time zone crossing. See the EJA982 flight status page for this flight to view local times or setup timezone preferences in your user account.

Time Position Orientation Groundspeed Altitude Reporting Facility
EDT Latitude Longitude Course Direction KTS MPH feet Rate Location/Type
Tue 05:13:33 PM 36.0761 -115.1683 271° West 172 198 3,000  Level Los Angeles Center
Tue 05:14:34 PM 36.0772 -115.2531 271° West 233 268 6,200 2,965 Climbing Los Angeles Center
Tue 05:14:58 PM 36.0869 -115.2753 298° West 238 274 7,200 3,900 Climbing Los Angeles Center
Tue 05:15:34 PM 36.1319 -115.2961 339° North 262 302 10,100 3,871 Climbing Los Angeles Center
Tue 05:16:00 PM 36.1536 -115.2850 22° Northeast 263 303 11,200 2,659 Climbing Los Angeles Center
Tue 05:17:02 PM 36.1894 -115.2042 61° Northeast 285 328 14,000 2,323 Climbing Los Angeles Center
Tue 05:18:04 PM 36.1967 -115.0547 87° East 363 418 16,000 1,839 Climbing Los Angeles Center
Tue 05:19:06 PM 36.1981 -114.9200 89° East 388 447 17,800 1,790 Climbing Los Angeles Center
Tue 05:20:08 PM 36.1986 -114.7828 90° East 395 455 19,700 1,728 Climbing Los Angeles Center
Tue 05:21:11 PM 36.1981 -114.6439 90° East 402 463 21,400 1,536 Climbing Los Angeles Center
Tue 05:22:13 PM 36.1961 -114.5011 91° East 411 473 22,900 1,368 Climbing Los Angeles Center
Tue 05:23:27 PM 36.1936 -114.3544 91° East 421 484 24,500 926 Climbing Los Angeles Center
Tue 05:24:29 PM 36.2547 -114.1525 69° East 453 521 25,000 339 Climbing Los Angeles Center
Tue 05:25:31 PM 36.3153 -114.0031 63° Northeast 477 549 25,200 677 Climbing Los Angeles Center
Tue 05:26:33 PM 36.3728 -113.8528 65° Northeast 483 556 26,400 1,258 Climbing Los Angeles Center
Tue 05:27:35 PM 36.4314 -113.7042 64° Northeast 482 555 27,800 1,306 Climbing Los Angeles Center
Tue 05:28:37 PM 36.4892 -113.5556 64° Northeast 479 551 29,100 1,258 Climbing Los Angeles Center
Tue 05:29:39 PM 36.5494 -113.3978 65° Northeast 477 549 30,400 1,210 Climbing Los Angeles Center
Tue 05:30:41 PM 36.6078 -113.2486 64° Northeast 479 551 31,600 1,152 Climbing Los Angeles Center
Tue 05:31:44 PM 36.6847 -113.1106 55° Northeast 489 563 32,800 1,248 Climbing Los Angeles Center
Tue 05:32:46 PM 36.7878 -112.9483 52° Northeast 496 571 34,200 1,258 Climbing Los Angeles Center
Tue 05:33:48 PM 36.8731 -112.8103 52° Northeast 503 579 35,400 1,161 Climbing Los Angeles Center
Tue 05:34:50 PM 36.9531 -112.6653 55° Northeast 509 586 36,600 1,113 Climbing Los Angeles Center
Tue 05:35:52 PM 37.0122 -112.5033 65° Northeast 514 592 37,700 1,065 Climbing Los Angeles Center
Tue 05:36:54 PM 37.0714 -112.3408 65° Northeast 517 595 38,800 1,161 Climbing Los Angeles Center
Tue 05:37:56 PM 37.1422 -112.1458 65° Northeast 517 595 40,100 1,065 Climbing Los Angeles Center
Tue 05:38:58 PM 37.2025 -111.9828 65° Northeast 519 597 41,000 435 Climbing Los Angeles Center
Tue 05:40:00 PM 37.2614 -111.8158 66° East 522 601 41,000  Level Los Angeles Center
Tue 05:41:05 PM 37.3231 -111.6444 66° East 536 617 41,000  Level Denver Center
Tue 05:42:07 PM 37.3978 -111.4328 66° East 552 635 41,000  Level Denver Center
Tue 05:43:09 PM 37.4603 -111.2572 66° East 551 634 41,000  Level Denver Center
Tue 05:44:11 PM 37.5206 -111.0825 66° East 547 629 41,000  Level Denver Center
Tue 05:45:13 PM 37.5817 -110.9078 66° East 547 629 41,000  Level Denver Center
Tue 05:46:15 PM 37.6417 -110.7325 67° East 547 629 41,000  Level Denver Center
Tue 05:47:17 PM 37.7150 -110.5214 66° East 548 631 41,000  Level Denver Center
Tue 05:48:19 PM 37.7767 -110.3406 67° East 545 627 41,000  Level Denver Center
Tue 05:49:21 PM 37.8347 -110.1706 67° East 548 631 41,000  Level Denver Center
Tue 05:50:23 PM 37.8919 -110.0019 67° East 546 628 41,000  Level Denver Center
Tue 05:51:25 PM 37.9486 -109.8294 67° East 551 634 41,000  Level Denver Center
Tue 05:52:27 PM 38.0158 -109.6308 67° East 549 632 41,000  Level Denver Center
Tue 05:53:29 PM 38.0797 -109.4378 67° East 552 635 41,000  Level Denver Center
Tue 05:54:32 PM 38.1456 -109.2361 67° East 554 638 41,000  Level Denver Center
Tue 05:55:34 PM 38.2019 -109.0614 68° East 559 643 41,000  Level Denver Center
Tue 05:56:36 PM 38.2672 -108.8589 68° East 555 639 41,000  Level Denver Center
Tue 05:57:38 PM 38.3233 -108.6853 68° East 556 640 41,000  Level Denver Center
Tue 05:58:40 PM 38.3892 -108.4819 68° East 557 641 41,000  Level Denver Center
Tue 05:59:42 PM 38.4456 -108.3081 67° East 556 640 41,000 48 Level Denver Center
Tue 06:00:44 PM 38.5106 -108.1017 68° East 562 647 41,100 387 Climbing Denver Center
Tue 06:01:46 PM 38.5650 -107.9272 68° East 556 640 41,800 774 Climbing Denver Center
Tue 06:02:48 PM 38.6283 -107.7253 68° East 551 634 42,700 581 Climbing Denver Center
Tue 06:03:50 PM 38.6817 -107.5553 68° East 543 625 43,000 145 Climbing Denver Center
Tue 06:04:52 PM 38.7333 -107.3831 69° East 543 625 43,000  Level Denver Center
Tue 06:05:54 PM 38.7958 -107.1786 69° East 552 635 43,000  Level Denver Center
Tue 06:06:56 PM 38.8469 -107.0136 68° East 556 640 43,000  Level Denver Center
Tue 06:07:58 PM 38.9106 -106.7967 69° East 552 635 43,000  Level Denver Center
Tue 06:09:00 PM 38.9647 -106.6208 68° East 553 636 43,000  Level Denver Center
Tue 06:10:02 PM 39.0256 -106.4139 69° East 556 640 43,000  Level Denver Center
Tue 06:11:04 PM 39.0775 -106.2356 69° East 557 641 43,000  Level Denver Center
Tue 06:12:06 PM 39.1308 -106.0539 69° East 556 640 43,000  Level Denver Center
Tue 06:13:08 PM 39.1967 -105.8300 69° East 557 641 43,000  Level Denver Center
Tue 06:14:10 PM 39.2511 -105.6428 69° East 559 643 43,000  Level Denver Center
Tue 06:15:12 PM 39.3072 -105.4528 69° East 570 656 43,000  Level Denver Center
Tue 06:16:14 PM 39.3600 -105.2661 70° East 558 642 43,000  Level Denver Center
Tue 06:17:16 PM 39.4122 -105.0778 70° East 552 635 43,000  Level Denver Center
Tue 06:18:18 PM 39.4481 -104.8839 76° East 563 648 43,000  Level Denver Center
Tue 06:19:20 PM 39.4897 -104.6592 76° East 550 633 43,000 48 Level Denver Center
Tue 06:20:22 PM 39.5464 -104.4839 67° East 548 631 43,100  Climbing Denver Center
Tue 06:21:23 PM 39.6094 -104.3139 64° Northeast 533 613 43,000 -49 Descending Denver Center
Tue 06:22:25 PM 39.6858 -104.0978 65° Northeast 549 632 43,000  Level Denver Center
Tue 06:23:27 PM 39.7500 -103.9153 65° Northeast 559 643 43,000  Level Denver Center
Tue 06:24:29 PM 39.8147 -103.7350 65° Northeast 547 629 43,000  Level Denver Center
Tue 06:25:31 PM 39.8778 -103.5558 65° Northeast 545 627 43,000  Level Denver Center
Tue 06:26:45 PM 39.9408 -103.3747 66° East 551 634 43,000  Level Denver Center
Tue 06:27:59 PM 40.0161 -103.1567 66° East 551 634 43,000  Level Denver Center
Tue 06:29:02 PM 40.1039 -102.9006 66° East 553 636 43,000  Level Denver Center
Tue 06:30:04 PM 40.1658 -102.7175 66° East 553 636 43,000  Level Denver Center
Tue 06:31:06 PM 40.2283 -102.5311 66° East 556 640 43,000  Level Denver Center
Tue 06:32:07 PM 40.2781 -102.3822 66° East 558 642 43,000  Level Denver Center
Tue 06:33:10 PM 40.3569 -102.1475 66° East 553 636 43,000  Level Denver Center
Tue 06:34:12 PM 40.4142 -101.9722 67° East 549 632 43,000  Level Denver Center
Tue 06:35:14 PM 40.4814 -101.7681 67° East 545 627 43,000  Level Denver Center
Tue 06:36:16 PM 40.5389 -101.5922 67° East 547 629 43,000  Level Denver Center
Tue 06:37:17 PM 40.6053 -101.3867 67° East 548 631 43,000  Level Denver Center
Tue 06:38:19 PM 40.6622 -101.2089 67° East 551 634 43,000  Level Denver Center
Tue 06:39:33 PM 40.7286 -101.0008 67° East 552 635 43,000  Level Denver Center
Tue 06:40:35 PM 40.7925 -100.8019 67° East 555 639 43,000  Level Denver Center
Tue 06:41:37 PM 40.8586 -100.5922 67° East 559 643 43,000  Level Denver Center
Tue 06:42:39 PM 40.9258 -100.3806 67° East 561 646 43,000  Level Denver Center
Tue 06:43:41 PM 40.9819 -100.1983 68° East 560 644 43,000  Level Denver Center
Tue 06:44:43 PM 41.0467 -99.9858 68° East 559 643 43,000  Level Denver Center
Tue 06:45:45 PM 41.1033 -99.8031 68° East 559 643 43,000  Level Denver Center
Tue 06:46:47 PM 41.1675 -99.5892 68° East 560 644 43,000  Level Denver Center
Tue 06:47:20 PM 41.1944 -99.5050 67° East 559 643 43,000  Level Minneapolis Center
Tue 06:48:22 PM 41.2519 -99.3114 68° East 560 644 43,000  Level Minneapolis Center
Tue 06:48:50 PM 41.2867 -99.1953 68° East 558 642 43,000  Level Denver Center
Tue 06:49:52 PM 41.3447 -99.0000 68° East 558 642 43,000  Level Denver Center
Tue 06:50:54 PM 41.4039 -98.8017 68° East 563 648 43,000  Level Denver Center
Tue 06:51:28 PM 41.4281 -98.7131 70° East 560 644 43,000  Level Minneapolis Center
Tue 06:52:30 PM 41.4844 -98.5192 69° East 561 646 43,000  Level Minneapolis Center
Tue 06:53:32 PM 41.5514 -98.2908 69° East 567 652 43,000  Level Minneapolis Center
Tue 06:54:34 PM 41.6094 -98.0883 69° East 564 649 43,000  Level Minneapolis Center
Tue 06:55:36 PM 41.6642 -97.8928 69° East 563 648 43,000  Level Minneapolis Center
Tue 06:56:38 PM 41.7200 -97.6967 69° East 564 649 43,000  Level Minneapolis Center
Tue 06:57:40 PM 41.7747 -97.5006 69° East 561 646 43,000  Level Minneapolis Center
Tue 06:58:42 PM 41.8283 -97.3047 70° East 560 644 43,000  Level Minneapolis Center
Tue 06:59:44 PM 41.8828 -97.1075 70° East 561 646 43,000  Level Minneapolis Center
Tue 07:00:46 PM 41.9372 -96.9108 70° East 561 646 43,000  Level Minneapolis Center
Tue 07:01:48 PM 42.0008 -96.6731 70° East 561 646 43,000  Level Minneapolis Center
Tue 07:02:50 PM 42.0544 -96.4758 70° East 560 644 43,000  Level Minneapolis Center
Tue 07:03:52 PM 42.1069 -96.2753 71° East 564 649 43,000  Level Minneapolis Center
Tue 07:04:55 PM 42.1603 -96.0750 70° East 565 650 43,000  Level Minneapolis Center
Tue 07:05:57 PM 42.2125 -95.8747 71° East 565 650 43,000  Level Minneapolis Center
Tue 07:06:59 PM 42.2647 -95.6742 71° East 564 649 43,000  Level Minneapolis Center
Tue 07:08:01 PM 42.3167 -95.4689 71° East 572 658 43,000  Level Minneapolis Center
Tue 07:09:03 PM 42.3772 -95.2281 71° East 563 648 43,000  Level Minneapolis Center
Tue 07:10:05 PM 42.4286 -95.0267 71° East 565 650 43,000  Level Minneapolis Center
Tue 07:11:07 PM 42.4781 -94.8269 71° East 560 644 43,000 -145 Level Minneapolis Center
Tue 07:12:09 PM 42.5281 -94.6269 71° East 559 643 42,700 -532 Descending Minneapolis Center
Tue 07:13:11 PM 42.5800 -94.4117 72° East 569 655 41,900 -726 Descending Minneapolis Center
Tue 07:14:13 PM 42.6061 -94.2031 80° East 567 652 41,200 -435 Descending Minneapolis Center
Tue 07:15:15 PM 42.5961 -93.9911 94° East 567 652 41,000 -97 Descending Minneapolis Center
Tue 07:16:17 PM 42.5867 -93.7797 93° East 566 651 41,000  Level Minneapolis Center
Tue 07:17:19 PM 42.5747 -93.5225 94° East 572 658 41,000  Level Minneapolis Center
Tue 07:18:21 PM 42.5639 -93.3147 94° East 563 648 41,000  Level Minneapolis Center
Tue 07:19:25 PM 42.5536 -93.1100 94° East 553 636 41,000  Level Minneapolis Center
Tue 07:19:46 PM 42.5486 -93.0267 95° East 552 635 41,000  Level Chicago Center
Tue 07:20:48 PM 42.5372 -92.8206 94° East 554 638 41,000  Level Chicago Center
Tue 07:21:50 PM 42.5253 -92.6156 94° East 553 636 41,000 -97 Level Chicago Center
Tue 07:22:52 PM 42.5114 -92.3669 94° East 557 641 40,800 -581 Descending Chicago Center
Tue 07:23:54 PM 42.4989 -92.1606 95° East 557 641 39,800 -864 Descending Chicago Center
Tue 07:24:57 PM 42.4867 -91.9525 94° East 562 647 39,000 -384 Descending Chicago Center
Tue 07:25:59 PM 42.4733 -91.7475 95° East 561 646 39,000  Level Chicago Center
Tue 07:27:01 PM 42.4567 -91.5011 95° East 561 646 39,000 -435 Level Chicago Center
Tue 07:28:03 PM 42.4422 -91.2928 95° East 565 650 38,100 -1,161 Descending Chicago Center
Tue 07:29:05 PM 42.4278 -91.0833 95° East 569 655 36,600 -1,452 Descending Chicago Center
Tue 07:30:07 PM 42.4125 -90.8769 96° East 560 644 35,100 -1,500 Descending Chicago Center
Tue 07:31:09 PM 42.4089 -90.6250 91° East 568 654 33,500 -1,597 Descending Chicago Center
Tue 07:32:11 PM 42.4297 -90.4197 82° East 560 644 31,800 -2,177 Descending Chicago Center
Tue 07:33:13 PM 42.4517 -90.2078 82° East 574 661 29,000 -2,613 Descending Chicago Center
Tue 07:34:15 PM 42.4725 -90.0028 82° East 556 640 26,400 -2,516 Descending Chicago Center
Tue 07:35:17 PM 42.4936 -89.7828 83° East 532 612 23,800 -1,728 Descending Chicago Center
Tue 07:36:20 PM 42.5111 -89.5956 83° East 508 585 22,800 -912 Descending Chicago Center
Tue 07:37:22 PM 42.5283 -89.4167 82° East 485 558 21,900 -1,645 Descending Chicago Center
Tue 07:38:24 PM 42.5486 -89.2042 83° East 487 560 19,400 -2,468 Descending Chicago Center
Tue 07:39:26 PM 42.5353 -89.0297 96° East 470 541 16,800 -2,371 Descending Chicago Center
Tue 07:40:28 PM 42.4889 -88.8731 112° Southeast 450 518 14,500 -2,177 Descending Chicago Center
Tue 07:41:30 PM 42.4450 -88.7292 112° Southeast 419 482 12,300 -2,081 Descending Chicago Center
Tue 07:42:32 PM 42.4028 -88.5936 113° Southeast 341 392 10,200 -1,645 Descending Chicago Center
Tue 07:43:34 PM 42.3650 -88.4917 117° Southeast 309 356 8,900 -1,210 Descending Chicago Center
Tue 07:44:36 PM 42.3044 -88.4422 149° Southeast 266 306 7,700 -1,452 Descending Chicago Center
Tue 07:45:38 PM 42.2392 -88.3842 147° Southeast 277 319 5,900 -1,306 Descending Chicago Center
Tue 07:46:40 PM 42.1786 -88.3314 147° Southeast 267 307 5,000 -871 Descending Chicago Center
Tue 07:47:42 PM 42.1092 -88.2742 149° Southeast 249 287 4,100 -480 Descending Chicago Center
Tue 07:48:45 PM 42.0536 -88.2219 145° Southeast 244 281 4,000 -480 Descending Chicago Center
Tue 07:49:47 PM 42.0239 -88.1353 115° Southeast 255 293 3,100 -978 Descending Chicago Center
Tue 07:50:17 PM 42.0000 -88.0833 122° Southeast 249 287 2,500 -667 Descending Chicago TRACON
Tue 07:51:17 PM 41.9833 -88.0167 109° East 201 231 2,100 -574 Descending Chicago TRACON
Tue 07:52:12 PM 41.9833 -87.9667 90° East 148 170 1,400 -764 Descending Chicago TRACON
Tue 07:54:00 PM 41.9817 -87.9067 180° South  Level Estimated
Tue 08:01:00 PM 41.9817 -87.9067 180° South  Level Estimated

Login

Don't have an account? Register now (free) for customized features, flight alerts, and more!